createdAt,value
2023-03-11T00:00:33.242Z,59.06
2023-03-11T00:03:03.456Z,58.91
2023-03-11T00:05:33.932Z,58.74
2023-03-11T00:08:02.497Z,58.65
2023-03-11T00:10:33.265Z,58.55
2023-03-11T00:13:02.076Z,58.51
2023-03-11T00:15:32.416Z,58.00
2023-03-11T00:18:00.798Z,57.78
2023-03-11T00:20:30.764Z,57.80
2023-03-11T00:22:59.579Z,57.90
2023-03-11T00:25:30.504Z,57.95
2023-03-11T00:27:58.817Z,58.02
2023-03-11T00:30:27.955Z,58.08
2023-03-11T00:32:59.522Z,58.05
2023-03-11T00:35:29.582Z,58.26
2023-03-11T00:37:59.588Z,58.32
2023-03-11T00:40:31.024Z,58.32
2023-03-11T00:42:59.756Z,58.41
2023-03-11T00:45:29.120Z,58.35
2023-03-11T00:47:59.193Z,57.99
2023-03-11T00:50:29.936Z,57.56
2023-03-11T00:52:58.886Z,57.70
2023-03-11T00:55:29.140Z,57.41
2023-03-11T00:58:00.267Z,57.26
2023-03-11T01:00:32.761Z,56.93
2023-03-11T01:03:02.212Z,56.87
2023-03-11T01:05:32.407Z,56.14
2023-03-11T01:08:01.259Z,56.33
2023-03-11T01:10:30.677Z,56.00
2023-03-11T01:12:58.948Z,56.04
2023-03-11T01:15:31.154Z,55.84
2023-03-11T01:18:02.133Z,55.72
2023-03-11T01:20:30.343Z,55.92
2023-03-11T01:22:58.490Z,55.80
2023-03-11T01:25:26.741Z,55.68
2023-03-11T01:27:54.934Z,55.78
2023-03-11T01:30:25.780Z,55.65
2023-03-11T01:32:55.225Z,55.55
2023-03-11T01:35:27.036Z,55.36
2023-03-11T01:37:55.364Z,55.15
2023-03-11T01:40:29.941Z,54.88
2023-03-11T01:43:00.005Z,54.98
2023-03-11T01:45:41.512Z,54.30
2023-03-11T01:48:11.917Z,54.65
2023-03-11T01:50:45.231Z,54.69
2023-03-11T01:53:15.089Z,54.84
2023-03-11T01:55:43.934Z,54.86
2023-03-11T01:58:17.134Z,54.75
2023-03-11T02:00:45.784Z,54.60
2023-03-11T02:03:19.776Z,54.45
2023-03-11T02:05:50.729Z,54.53
2023-03-11T02:08:18.792Z,54.61
2023-03-11T02:10:47.911Z,54.47
2023-03-11T02:13:17.170Z,54.25
2023-03-11T02:15:46.148Z,54.27
2023-03-11T02:18:15.975Z,54.20
2023-03-11T02:20:49.338Z,54.22
2023-03-11T02:23:22.012Z,54.29
2023-03-11T02:25:55.699Z,54.24
2023-03-11T02:28:26.504Z,54.16
2023-03-11T02:30:54.750Z,54.23
2023-03-11T02:33:24.511Z,54.26
2023-03-11T02:35:52.892Z,54.20
2023-03-11T02:38:21.072Z,54.21
2023-03-11T02:40:54.006Z,54.20
2023-03-11T02:43:34.638Z,53.62
2023-03-11T02:46:03.560Z,53.94
2023-03-11T02:48:33.234Z,53.86
2023-03-11T02:51:01.830Z,53.57
2023-03-11T02:53:34.552Z,53.40
2023-03-11T02:56:02.654Z,53.27
2023-03-11T02:58:32.511Z,53.17
2023-03-11T03:01:00.559Z,53.22
2023-03-11T03:03:28.728Z,53.10
2023-03-11T03:05:57.012Z,53.06
2023-03-11T03:08:25.133Z,52.61
2023-03-11T03:10:53.557Z,52.54
2023-03-11T03:13:21.740Z,52.55
2023-03-11T03:15:51.239Z,52.36
2023-03-11T03:18:19.300Z,52.28
2023-03-11T03:20:47.474Z,52.33
2023-03-11T03:23:17.607Z,52.32
2023-03-11T03:25:46.148Z,52.53
2023-03-11T03:28:15.369Z,52.51
2023-03-11T03:30:46.758Z,52.40
2023-03-11T03:33:16.992Z,52.34
2023-03-11T03:35:46.359Z,52.28
2023-03-11T03:38:19.890Z,52.20
2023-03-11T03:40:50.084Z,52.01
2023-03-11T03:43:20.949Z,52.09
2023-03-11T03:45:57.134Z,51.86
2023-03-11T03:48:28.453Z,51.85
2023-03-11T03:50:57.008Z,51.82
2023-03-11T03:53:25.324Z,51.75
2023-03-11T03:55:54.684Z,51.75
2023-03-11T03:58:22.869Z,51.83
2023-03-11T04:00:51.167Z,51.88
2023-03-11T04:03:19.427Z,51.95
2023-03-11T04:05:55.364Z,51.82
2023-03-11T04:08:23.508Z,51.82
2023-03-11T04:10:58.145Z,51.77
2023-03-11T04:13:27.392Z,52.11
2023-03-11T04:15:55.922Z,52.11
2023-03-11T04:18:24.053Z,51.95
2023-03-11T04:20:52.389Z,51.99
2023-03-11T04:23:22.593Z,51.99
2023-03-11T04:25:50.776Z,51.88
2023-03-11T04:28:20.165Z,51.85
2023-03-11T04:30:48.405Z,51.88
2023-03-11T04:33:16.610Z,51.86
2023-03-11T04:35:45.068Z,51.77
2023-03-11T04:38:13.245Z,51.77
2023-03-11T04:40:42.789Z,51.79
2023-03-11T04:43:11.176Z,51.95
2023-03-11T04:45:40.150Z,52.03
2023-03-11T04:48:09.250Z,52.02
2023-03-11T04:50:39.039Z,51.95
2023-03-11T04:53:07.159Z,51.90
2023-03-11T04:55:35.571Z,51.88
2023-03-11T04:58:05.206Z,51.85
2023-03-11T05:00:34.667Z,51.90
2023-03-11T05:03:10.191Z,52.02
2023-03-11T05:05:38.520Z,52.15
2023-03-11T05:08:07.275Z,52.05
2023-03-11T05:10:36.793Z,51.98
2023-03-11T05:13:08.991Z,51.99
2023-03-11T05:15:39.110Z,52.04
2023-03-11T05:18:08.186Z,52.09
2023-03-11T05:20:38.459Z,52.11
2023-03-11T05:23:07.151Z,52.15
2023-03-11T05:25:37.139Z,52.18
2023-03-11T05:28:06.292Z,52.29
2023-03-11T05:30:39.630Z,52.43
2023-03-11T05:33:07.879Z,52.44
2023-03-11T05:35:36.510Z,52.41
2023-03-11T05:38:05.011Z,52.36
2023-03-11T05:40:33.969Z,52.33
2023-03-11T05:43:02.058Z,52.35
2023-03-11T05:45:33.036Z,52.40
2023-03-11T05:48:04.347Z,52.37
2023-03-11T05:50:33.143Z,52.41
2023-03-11T05:53:01.977Z,52.80
2023-03-11T05:55:31.857Z,52.98
2023-03-11T05:58:01.100Z,52.96
2023-03-11T06:00:29.507Z,52.97
2023-03-11T06:03:00.021Z,52.99
2023-03-11T06:05:29.763Z,53.11
2023-03-11T06:07:58.771Z,53.25
2023-03-11T06:10:26.878Z,53.39
2023-03-11T06:12:55.070Z,53.44
2023-03-11T06:15:27.037Z,53.31
2023-03-11T06:17:55.596Z,53.24
2023-03-11T06:20:23.847Z,53.17
2023-03-11T06:22:53.997Z,53.14
2023-03-11T06:25:24.386Z,53.15
2023-03-11T06:27:54.414Z,53.20
2023-03-11T06:30:25.973Z,53.27
2023-03-11T06:33:01.024Z,53.34
2023-03-11T06:35:29.323Z,53.46
2023-03-11T06:37:58.740Z,53.59
2023-03-11T06:40:26.771Z,53.72
2023-03-11T06:42:55.014Z,53.89
2023-03-11T06:45:25.478Z,54.01
2023-03-11T06:47:54.186Z,54.25
2023-03-11T06:50:24.072Z,54.50
2023-03-11T06:52:53.931Z,54.70
2023-03-11T06:55:23.341Z,54.87
2023-03-11T06:57:51.542Z,54.88
2023-03-11T07:00:20.228Z,54.91
2023-03-11T07:02:53.712Z,54.88
2023-03-11T07:05:22.400Z,54.98
2023-03-11T07:07:56.380Z,54.86
2023-03-11T07:10:27.465Z,55.10
2023-03-11T07:12:55.605Z,55.31
2023-03-11T07:15:24.680Z,55.16
2023-03-11T07:17:52.893Z,55.20
2023-03-11T07:20:21.145Z,55.37
2023-03-11T07:22:49.181Z,55.33
2023-03-11T07:25:17.458Z,55.29
2023-03-11T07:27:46.842Z,55.00
2023-03-11T07:30:15.858Z,55.04
2023-03-11T07:32:43.918Z,54.73
2023-03-11T07:35:11.967Z,54.63
2023-03-11T07:37:39.986Z,54.49
2023-03-11T07:40:09.615Z,54.46
2023-03-11T07:42:37.669Z,54.51
2023-03-11T07:45:09.130Z,53.90
2023-03-11T07:47:37.170Z,53.78
2023-03-11T07:50:05.613Z,53.93
2023-03-11T07:52:33.959Z,53.88
2023-03-11T07:55:02.268Z,53.65
2023-03-11T07:57:30.284Z,53.70
2023-03-11T07:59:58.280Z,53.70
2023-03-11T08:02:28.249Z,53.08
2023-03-11T08:04:57.520Z,53.23
2023-03-11T08:07:25.596Z,53.03
2023-03-11T08:09:53.636Z,53.30
2023-03-11T08:12:21.714Z,53.27
2023-03-11T08:14:49.736Z,53.08
2023-03-11T08:17:17.784Z,53.18
2023-03-11T08:19:47.257Z,53.09
2023-03-11T08:22:15.300Z,52.89
2023-03-11T08:24:43.403Z,52.69
2023-03-11T08:27:12.390Z,52.54
2023-03-11T08:29:40.401Z,52.28
2023-03-11T08:32:08.601Z,52.26
2023-03-11T08:34:36.707Z,52.09
2023-03-11T08:37:06.916Z,51.80
2023-03-11T08:39:34.961Z,51.67
2023-03-11T08:42:04.043Z,51.53
2023-03-11T08:44:32.108Z,51.92
2023-03-11T08:47:00.144Z,52.13
2023-03-11T08:49:28.289Z,51.95
2023-03-11T08:51:56.435Z,52.01
2023-03-11T08:54:25.988Z,51.38
2023-03-11T08:56:54.015Z,50.98
2023-03-11T08:59:22.056Z,50.24
2023-03-11T09:01:50.088Z,51.00
2023-03-11T09:04:18.104Z,50.41
2023-03-11T09:06:48.786Z,50.40
2023-03-11T09:09:19.521Z,50.61
2023-03-11T09:11:49.479Z,49.61
2023-03-11T09:14:17.700Z,49.12
2023-03-11T09:16:45.740Z,48.94
2023-03-11T09:19:13.773Z,48.57
2023-03-11T09:21:41.801Z,47.88
2023-03-11T09:24:09.929Z,46.38
2023-03-11T09:26:38.005Z,45.60
2023-03-11T09:29:07.398Z,45.20
2023-03-11T09:31:35.484Z,44.48
2023-03-11T09:34:03.658Z,43.58
2023-03-11T09:36:31.935Z,44.31
2023-03-11T09:39:00.053Z,43.26
2023-03-11T09:41:40.000Z,42.77
2023-03-11T09:44:20.099Z,41.99
2023-03-11T09:47:23.791Z,39.62
2023-03-11T09:50:11.962Z,39.94
2023-03-11T09:52:45.900Z,39.10
2023-03-11T09:55:28.131Z,37.75
2023-03-11T09:57:57.942Z,37.24
2023-03-11T10:00:27.491Z,37.50
2023-03-11T10:02:56.529Z,36.43
2023-03-11T10:05:28.383Z,37.26
2023-03-11T10:08:04.578Z,37.15
2023-03-11T10:10:40.186Z,36.78
2023-03-11T10:13:14.399Z,37.26
2023-03-11T10:15:52.412Z,34.89
2023-03-11T10:18:39.011Z,33.39
2023-03-11T10:21:14.856Z,33.72
2023-03-11T10:23:57.828Z,32.84
2023-03-11T10:26:33.480Z,32.80
2023-03-11T10:29:08.840Z,33.72
2023-03-11T10:31:43.385Z,33.22
2023-03-11T10:34:16.665Z,31.19
2023-03-11T10:36:57.085Z,31.80
2023-03-11T10:39:26.286Z,31.66
2023-03-11T10:41:56.699Z,31.63
2023-03-11T10:44:29.346Z,30.89
2023-03-11T10:46:58.738Z,31.07
2023-03-11T10:49:27.296Z,31.93
2023-03-11T10:51:57.215Z,31.82
2023-03-11T10:54:28.848Z,31.81
2023-03-11T10:56:59.093Z,32.11
2023-03-11T10:59:31.344Z,30.90
2023-03-11T11:02:02.601Z,31.23
2023-03-11T11:04:36.220Z,30.87
2023-03-11T11:07:30.185Z,30.50
2023-03-11T11:10:17.284Z,30.59
2023-03-11T11:12:59.562Z,30.43
2023-03-11T11:15:30.545Z,30.42
2023-03-11T11:18:02.055Z,31.38
2023-03-11T11:20:31.415Z,30.57
2023-03-11T11:23:01.415Z,31.32
2023-03-11T11:25:33.686Z,30.77
2023-03-11T11:28:05.286Z,29.80
2023-03-11T11:30:33.416Z,30.35
2023-03-11T11:33:25.682Z,29.97
2023-03-11T11:35:56.223Z,31.41
2023-03-11T11:38:26.098Z,31.08
2023-03-11T11:40:56.365Z,32.81
2023-03-11T11:43:36.182Z,32.58
2023-03-11T11:46:08.386Z,31.09
2023-03-11T11:48:46.098Z,31.80
2023-03-11T11:51:21.003Z,30.27
2023-03-11T11:53:53.571Z,31.22
2023-03-11T11:56:25.615Z,30.88
2023-03-11T11:58:54.737Z,30.54
2023-03-11T12:01:35.250Z,30.54
2023-03-11T12:04:28.308Z,31.41
2023-03-11T12:07:14.781Z,30.58
2023-03-11T12:09:51.097Z,29.82
2023-03-11T12:12:28.154Z,29.95
2023-03-11T12:15:03.621Z,28.68
2023-03-11T12:17:33.308Z,29.71
2023-03-11T12:20:08.691Z,30.43
2023-03-11T12:22:55.310Z,27.07
2023-03-11T12:25:29.982Z,27.74
2023-03-11T12:28:04.433Z,27.78
2023-03-11T12:30:37.795Z,27.78
2023-03-11T12:33:15.624Z,28.46
2023-03-11T12:35:50.844Z,27.85
2023-03-11T12:38:21.228Z,27.85
2023-03-11T12:41:00.317Z,28.48
2023-03-11T12:44:11.511Z,27.69
2023-03-11T12:47:02.989Z,28.19
2023-03-11T12:49:31.715Z,27.05
2023-03-11T12:52:17.293Z,27.80
2023-03-11T12:54:46.556Z,28.93
2023-03-11T12:57:35.755Z,28.56
2023-03-11T13:00:19.345Z,28.65
2023-03-11T13:03:11.357Z,29.84
2023-03-11T13:05:58.461Z,31.03
2023-03-11T13:08:30.391Z,32.27
2023-03-11T13:10:59.324Z,31.81
2023-03-11T13:13:39.316Z,31.96
2023-03-11T13:16:39.806Z,33.44
2023-03-11T13:19:34.806Z,33.72
2023-03-11T13:22:03.942Z,34.02
2023-03-11T13:24:52.510Z,32.82
2023-03-11T13:27:43.064Z,32.29
2023-03-11T13:30:18.765Z,31.70
2023-03-11T13:33:15.277Z,31.80
2023-03-11T13:35:57.825Z,31.09
2023-03-11T13:38:49.303Z,29.93
2023-03-11T13:41:23.822Z,31.19
2023-03-11T13:43:52.476Z,30.26
2023-03-11T13:46:28.919Z,30.34
2023-03-11T13:49:04.007Z,31.00
2023-03-11T13:51:39.224Z,30.96
2023-03-11T13:54:23.965Z,30.65
2023-03-11T13:56:58.030Z,31.38
2023-03-11T13:59:28.652Z,32.41
2023-03-11T14:02:00.305Z,31.45
2023-03-11T14:04:30.205Z,32.44
2023-03-11T14:06:58.660Z,32.52
2023-03-11T14:09:29.645Z,33.35
2023-03-11T14:12:08.110Z,31.83
2023-03-11T14:14:47.812Z,31.07
2023-03-11T14:17:18.019Z,30.51
2023-03-11T14:20:04.675Z,30.03
2023-03-11T14:22:32.928Z,29.86
2023-03-11T14:25:10.986Z,29.71
2023-03-11T14:27:40.750Z,31.12
2023-03-11T14:30:19.255Z,32.41
2023-03-11T14:32:58.097Z,33.88
2023-03-11T14:35:26.696Z,34.61
2023-03-11T14:37:55.011Z,35.50
2023-03-11T14:40:30.519Z,37.11
2023-03-11T14:43:02.887Z,37.82
2023-03-11T14:45:33.668Z,38.47
2023-03-11T14:48:05.979Z,39.40
2023-03-11T14:50:36.252Z,40.18
2023-03-11T14:53:09.955Z,40.26
2023-03-11T14:55:41.172Z,40.17
2023-03-11T14:58:16.328Z,40.55
2023-03-11T15:00:50.061Z,40.63
2023-03-11T15:03:24.480Z,41.36
2023-03-11T15:05:55.653Z,41.00
2023-03-11T15:08:27.050Z,38.36
2023-03-11T15:11:15.457Z,38.62
2023-03-11T15:13:47.405Z,37.91
2023-03-11T15:16:34.018Z,38.38
2023-03-11T15:19:03.544Z,38.24
2023-03-11T15:21:31.663Z,36.38
2023-03-11T15:24:05.258Z,35.76
2023-03-11T15:26:35.862Z,35.84
2023-03-11T15:29:14.750Z,35.55
2023-03-11T15:31:47.547Z,35.53
2023-03-11T15:34:28.345Z,34.96
2023-03-11T15:36:59.885Z,35.22
2023-03-11T15:39:41.125Z,36.13
2023-03-11T15:42:15.548Z,36.58
2023-03-11T15:44:53.647Z,37.75
2023-03-11T15:47:23.537Z,37.79
2023-03-11T15:49:51.971Z,38.69
2023-03-11T15:52:20.517Z,39.32
2023-03-11T15:54:55.410Z,40.17
2023-03-11T15:57:27.292Z,41.20
2023-03-11T15:59:58.255Z,41.78
2023-03-11T16:02:28.242Z,42.74
2023-03-11T16:04:57.077Z,43.22
2023-03-11T16:07:38.776Z,43.50
2023-03-11T16:10:07.870Z,43.74
2023-03-11T16:16:28.251Z,46.30
2023-03-11T16:19:01.076Z,47.44
2023-03-11T16:25:46.591Z,49.24
2023-03-11T16:28:20.169Z,50.18
2023-03-11T16:30:53.563Z,50.72
2023-03-11T16:33:37.074Z,50.53
2023-03-11T16:36:38.420Z,50.53
2023-03-11T16:40:00.317Z,49.97
2023-03-11T16:42:59.146Z,49.76
2023-03-11T16:49:16.006Z,49.12
2023-03-11T16:51:54.646Z,49.27
2023-03-11T16:58:07.630Z,49.20
2023-03-11T17:01:35.739Z,49.37
2023-03-11T17:04:48.656Z,49.56
2023-03-11T17:07:16.962Z,49.61
2023-03-11T17:09:44.946Z,49.65
2023-03-11T17:12:15.718Z,49.87
2023-03-11T17:14:43.808Z,50.33
2023-03-11T17:17:11.897Z,50.54
2023-03-11T17:19:41.344Z,50.68
2023-03-11T17:22:09.400Z,51.02
2023-03-11T17:24:37.778Z,51.06
2023-03-11T17:27:05.992Z,51.14
2023-03-11T17:29:34.852Z,51.55
2023-03-11T17:32:03.518Z,51.33
2023-03-11T17:34:31.629Z,51.62
2023-03-11T17:37:01.046Z,51.73
2023-03-11T17:39:29.484Z,51.80
2023-03-11T17:41:57.639Z,51.64
2023-03-11T17:44:25.737Z,51.44
2023-03-11T17:46:53.821Z,51.33
2023-03-11T17:49:24.549Z,51.33
2023-03-11T17:51:52.770Z,51.42
2023-03-11T17:54:22.237Z,51.55
2023-03-11T17:56:50.333Z,51.64
2023-03-11T17:59:18.358Z,51.54
2023-03-11T18:01:47.645Z,51.47
2023-03-11T18:04:15.864Z,51.37
2023-03-11T18:06:44.349Z,51.25
2023-03-11T18:09:12.499Z,51.52
2023-03-11T18:11:41.983Z,51.48
2023-03-11T18:14:10.163Z,51.40
2023-03-11T18:16:38.576Z,51.48
2023-03-11T18:19:06.789Z,51.11
2023-03-11T18:21:34.973Z,51.40
2023-03-11T18:24:03.192Z,51.30
2023-03-11T18:26:31.882Z,51.32
2023-03-11T18:29:02.275Z,51.44
2023-03-11T18:31:32.079Z,51.64
2023-03-11T18:34:02.382Z,51.74
2023-03-11T18:36:32.378Z,51.78
2023-03-11T18:39:04.772Z,51.69
2023-03-11T18:41:35.493Z,51.68
2023-03-11T18:44:08.475Z,51.56
2023-03-11T18:46:36.598Z,51.42
2023-03-11T18:49:05.590Z,51.50
2023-03-11T18:51:34.297Z,51.64
2023-03-11T18:54:02.815Z,51.65
2023-03-11T18:56:32.126Z,51.73
2023-03-11T18:59:00.380Z,51.75
2023-03-11T19:01:30.003Z,51.94
2023-03-11T19:03:59.952Z,52.08
2023-03-11T19:06:29.178Z,52.27
2023-03-11T19:08:57.840Z,52.31
2023-03-11T19:11:26.967Z,52.55
2023-03-11T19:13:55.133Z,52.60
2023-03-11T19:16:26.078Z,52.58
2023-03-11T19:18:56.479Z,52.53
2023-03-11T19:21:25.888Z,52.65
2023-03-11T19:23:55.326Z,52.75
2023-03-11T19:26:30.861Z,52.88
2023-03-11T19:29:10.297Z,52.98
2023-03-11T19:31:38.489Z,53.01
2023-03-11T19:34:08.207Z,53.07
2023-03-11T19:36:36.269Z,52.98
2023-03-11T19:39:04.648Z,52.98
2023-03-11T19:41:32.698Z,52.94
2023-03-11T19:44:00.897Z,52.85
2023-03-11T19:46:29.786Z,52.90
2023-03-11T19:48:58.895Z,52.97
2023-03-11T19:51:32.922Z,53.01
2023-03-11T19:54:07.289Z,52.97
2023-03-11T19:56:35.506Z,52.98
2023-03-11T19:59:07.267Z,53.06
2023-03-11T20:01:35.425Z,52.96
2023-03-11T20:04:03.624Z,52.90
2023-03-11T20:06:33.147Z,52.88
2023-03-11T20:09:01.258Z,52.83
2023-03-11T20:11:29.453Z,52.98
2023-03-11T20:13:57.493Z,53.01
2023-03-11T20:16:25.834Z,53.06
2023-03-11T20:18:53.898Z,52.95
2023-03-11T20:21:22.356Z,52.95
2023-03-11T20:23:54.359Z,53.03
2023-03-11T20:26:22.632Z,53.06
2023-03-11T20:28:50.890Z,53.08
2023-03-11T20:31:21.004Z,53.20
2023-03-11T20:33:50.346Z,53.15
2023-03-11T20:36:21.138Z,53.23
2023-03-11T20:38:51.103Z,53.20
2023-03-11T20:41:19.720Z,53.18
2023-03-11T20:43:47.848Z,53.25
2023-03-11T20:46:16.109Z,53.42
2023-03-11T20:48:44.295Z,53.35
2023-03-11T20:51:15.766Z,53.36
2023-03-11T20:53:43.998Z,53.24
2023-03-11T20:56:16.173Z,53.20
2023-03-11T20:58:45.736Z,53.22
2023-03-11T21:01:15.989Z,53.20
2023-03-11T21:03:46.379Z,53.16
2023-03-11T21:06:18.325Z,53.15
2023-03-11T21:08:46.985Z,53.13
2023-03-11T21:11:17.457Z,53.01
2023-03-11T21:13:45.759Z,53.04
2023-03-11T21:16:14.713Z,53.00
2023-03-11T21:18:44.351Z,52.99
2023-03-11T21:21:13.224Z,53.18
2023-03-11T21:23:42.378Z,53.21
2023-03-11T21:26:12.141Z,53.15
2023-03-11T21:28:46.831Z,53.12
2023-03-11T21:31:16.976Z,53.19
2023-03-11T21:33:45.493Z,53.18
2023-03-11T21:36:15.085Z,53.14
2023-03-11T21:38:43.297Z,52.92
2023-03-11T21:41:13.348Z,52.72
2023-03-11T21:43:43.911Z,52.68
2023-03-11T21:46:14.051Z,52.56
2023-03-11T21:48:42.256Z,52.58
2023-03-11T21:51:10.461Z,52.56
2023-03-11T21:53:38.854Z,52.82
2023-03-11T21:56:07.537Z,52.92
2023-03-11T21:58:35.753Z,52.94
2023-03-11T22:01:05.531Z,53.17
2023-03-11T22:03:35.874Z,53.35
2023-03-11T22:06:07.355Z,53.56
2023-03-11T22:08:36.039Z,53.68
2023-03-11T22:11:04.812Z,53.68
2023-03-11T22:13:32.880Z,53.84
2023-03-11T22:16:07.389Z,53.64
2023-03-11T22:18:35.702Z,53.72
2023-03-11T22:21:03.855Z,53.75
2023-03-11T22:23:32.293Z,53.63
2023-03-11T22:26:09.688Z,53.39
2023-03-11T22:28:37.898Z,53.62
2023-03-11T22:31:12.119Z,53.36
2023-03-11T22:33:40.485Z,53.59
2023-03-11T22:36:09.618Z,53.58
2023-03-11T22:38:40.033Z,53.70
2023-03-11T22:41:10.188Z,53.94
2023-03-11T22:43:38.773Z,53.97
2023-03-11T22:46:07.604Z,54.19
2023-03-11T22:48:37.577Z,54.24
2023-03-11T22:51:07.085Z,54.37
2023-03-11T22:53:35.195Z,54.33
2023-03-11T22:56:08.361Z,54.18
2023-03-11T22:58:36.811Z,54.25
2023-03-11T23:01:05.829Z,54.31
2023-03-11T23:03:34.958Z,54.19
2023-03-11T23:06:06.749Z,54.23
2023-03-11T23:08:35.938Z,54.26
2023-03-11T23:11:05.262Z,54.22
2023-03-11T23:13:35.841Z,54.33
2023-03-11T23:16:07.261Z,54.65
2023-03-11T23:18:35.828Z,54.92
2023-03-11T23:21:05.851Z,54.94
2023-03-11T23:23:33.960Z,55.02
2023-03-11T23:26:02.047Z,55.09
2023-03-11T23:28:30.097Z,55.00
2023-03-11T23:30:58.244Z,54.95
2023-03-11T23:33:26.417Z,55.01
2023-03-11T23:35:54.518Z,54.64
2023-03-11T23:38:23.989Z,54.59
2023-03-11T23:40:52.262Z,54.30
2023-03-11T23:43:20.508Z,54.10
2023-03-11T23:45:48.649Z,53.90
2023-03-11T23:48:16.756Z,53.97
2023-03-11T23:50:46.708Z,53.97
2023-03-11T23:53:15.134Z,54.10
2023-03-11T23:55:44.808Z,54.06
2023-03-11T23:58:13.085Z,54.08
